sensor_id;sensor_type;location;lat;lon;timestamp;P1;durP1;ratioP1;P2;durP2;ratioP2
583;SDS011;27024;54.068;12.116;2022-12-07T00:01:37;8.63;;;4.03;;
583;SDS011;27024;54.068;12.116;2022-12-07T00:04:06;9.13;;;4.18;;
583;SDS011;27024;54.068;12.116;2022-12-07T00:06:38;10.13;;;4.30;;
583;SDS011;27024;54.068;12.116;2022-12-07T00:09:10;8.05;;;4.38;;
583;SDS011;27024;54.068;12.116;2022-12-07T00:11:41;8.93;;;4.30;;
583;SDS011;27024;54.068;12.116;2022-12-07T00:14:12;10.70;;;4.20;;
583;SDS011;27024;54.068;12.116;2022-12-07T00:16:40;12.65;;;4.78;;
583;SDS011;27024;54.068;12.116;2022-12-07T00:19:08;9.70;;;5.00;;
583;SDS011;27024;54.068;12.116;2022-12-07T00:21:36;10.05;;;5.35;;
583;SDS011;27024;54.068;12.116;2022-12-07T00:24:04;11.68;;;5.03;;
583;SDS011;27024;54.068;12.116;2022-12-07T00:26:32;11.63;;;5.22;;
583;SDS011;27024;54.068;12.116;2022-12-07T00:29:10;9.88;;;5.60;;
583;SDS011;27024;54.068;12.116;2022-12-07T00:31:40;11.55;;;5.53;;
583;SDS011;27024;54.068;12.116;2022-12-07T00:34:11;11.27;;;5.55;;
583;SDS011;27024;54.068;12.116;2022-12-07T00:36:40;10.38;;;4.65;;
583;SDS011;27024;54.068;12.116;2022-12-07T00:39:07;12.10;;;5.25;;
583;SDS011;27024;54.068;12.116;2022-12-07T00:41:33;11.23;;;5.15;;
583;SDS011;27024;54.068;12.116;2022-12-07T00:44:01;12.00;;;5.38;;
583;SDS011;27024;54.068;12.116;2022-12-07T00:46:27;12.50;;;5.65;;
583;SDS011;27024;54.068;12.116;2022-12-07T00:48:54;11.25;;;5.03;;
583;SDS011;27024;54.068;12.116;2022-12-07T00:51:22;12.60;;;5.30;;
583;SDS011;27024;54.068;12.116;2022-12-07T00:53:50;11.05;;;5.15;;
583;SDS011;27024;54.068;12.116;2022-12-07T00:56:19;8.98;;;4.45;;
583;SDS011;27024;54.068;12.116;2022-12-07T00:58:56;10.38;;;4.60;;
583;SDS011;27024;54.068;12.116;2022-12-07T01:01:25;9.25;;;4.70;;
583;SDS011;27024;54.068;12.116;2022-12-07T01:03:55;9.10;;;4.15;;
583;SDS011;27024;54.068;12.116;2022-12-07T01:06:23;12.05;;;5.20;;
583;SDS011;27024;54.068;12.116;2022-12-07T01:08:50;10.35;;;4.53;;
583;SDS011;27024;54.068;12.116;2022-12-07T01:11:18;10.73;;;4.75;;
583;SDS011;27024;54.068;12.116;2022-12-07T01:13:49;12.20;;;5.15;;
583;SDS011;27024;54.068;12.116;2022-12-07T01:16:17;9.98;;;4.75;;
583;SDS011;27024;54.068;12.116;2022-12-07T01:18:48;10.70;;;4.75;;
583;SDS011;27024;54.068;12.116;2022-12-07T01:23:48;10.98;;;5.22;;
583;SDS011;27024;54.068;12.116;2022-12-07T01:26:17;11.95;;;5.03;;
583;SDS011;27024;54.068;12.116;2022-12-07T01:28:47;11.05;;;4.57;;
583;SDS011;27024;54.068;12.116;2022-12-07T01:31:18;12.00;;;5.40;;
583;SDS011;27024;54.068;12.116;2022-12-07T01:36:15;12.13;;;4.65;;
583;SDS011;27024;54.068;12.116;2022-12-07T01:38:44;10.48;;;5.00;;
583;SDS011;27024;54.068;12.116;2022-12-07T01:41:12;11.57;;;5.47;;
583;SDS011;27024;54.068;12.116;2022-12-07T01:46:35;13.07;;;5.53;;
583;SDS011;27024;54.068;12.116;2022-12-07T01:49:02;11.45;;;5.00;;
583;SDS011;27024;54.068;12.116;2022-12-07T01:51:32;10.00;;;4.40;;
583;SDS011;27024;54.068;12.116;2022-12-07T01:54:00;9.85;;;4.32;;
583;SDS011;27024;54.068;12.116;2022-12-07T01:56:27;10.93;;;4.70;;
583;SDS011;27024;54.068;12.116;2022-12-07T01:58:55;12.85;;;5.70;;
583;SDS011;27024;54.068;12.116;2022-12-07T02:01:23;10.48;;;4.60;;
583;SDS011;27024;54.068;12.116;2022-12-07T02:03:50;12.68;;;5.43;;
583;SDS011;27024;54.068;12.116;2022-12-07T02:06:19;11.63;;;4.95;;
583;SDS011;27024;54.068;12.116;2022-12-07T02:08:48;11.77;;;4.68;;
583;SDS011;27024;54.068;12.116;2022-12-07T02:11:15;10.18;;;4.80;;
583;SDS011;27024;54.068;12.116;2022-12-07T02:13:43;12.63;;;5.38;;
583;SDS011;27024;54.068;12.116;2022-12-07T02:25:33;12.77;;;5.60;;
583;SDS011;27024;54.068;12.116;2022-12-07T02:28:12;11.55;;;5.00;;
583;SDS011;27024;54.068;12.116;2022-12-07T02:30:48;13.55;;;5.38;;
583;SDS011;27024;54.068;12.116;2022-12-07T02:33:19;11.52;;;5.25;;
583;SDS011;27024;54.068;12.116;2022-12-07T02:36:05;14.98;;;5.97;;
583;SDS011;27024;54.068;12.116;2022-12-07T02:38:43;13.40;;;5.55;;
583;SDS011;27024;54.068;12.116;2022-12-07T02:41:20;16.38;;;6.60;;
583;SDS011;27024;54.068;12.116;2022-12-07T02:43:54;13.20;;;5.65;;
583;SDS011;27024;54.068;12.116;2022-12-07T02:46:25;16.65;;;6.70;;
583;SDS011;27024;54.068;12.116;2022-12-07T02:48:56;15.60;;;6.32;;
583;SDS011;27024;54.068;12.116;2022-12-07T02:51:25;14.63;;;6.20;;
583;SDS011;27024;54.068;12.116;2022-12-07T02:53:56;17.92;;;7.00;;
583;SDS011;27024;54.068;12.116;2022-12-07T02:56:43;14.52;;;6.40;;
583;SDS011;27024;54.068;12.116;2022-12-07T03:08:03;16.55;;;6.22;;
583;SDS011;27024;54.068;12.116;2022-12-07T03:15:44;18.05;;;6.75;;
583;SDS011;27024;54.068;12.116;2022-12-07T03:18:18;21.00;;;6.90;;
583;SDS011;27024;54.068;12.116;2022-12-07T03:20:49;20.08;;;6.55;;
583;SDS011;27024;54.068;12.116;2022-12-07T03:23:17;16.58;;;6.35;;
583;SDS011;27024;54.068;12.116;2022-12-07T03:25:47;19.33;;;6.93;;
583;SDS011;27024;54.068;12.116;2022-12-07T03:28:26;20.15;;;6.88;;
583;SDS011;27024;54.068;12.116;2022-12-07T03:31:00;23.13;;;7.30;;
583;SDS011;27024;54.068;12.116;2022-12-07T03:33:39;20.30;;;7.25;;
583;SDS011;27024;54.068;12.116;2022-12-07T03:41:39;20.08;;;8.10;;
583;SDS011;27024;54.068;12.116;2022-12-07T03:44:10;22.40;;;7.22;;
583;SDS011;27024;54.068;12.116;2022-12-07T03:49:10;25.73;;;7.68;;
583;SDS011;27024;54.068;12.116;2022-12-07T03:51:51;31.05;;;8.43;;
583;SDS011;27024;54.068;12.116;2022-12-07T03:54:23;24.55;;;8.43;;
583;SDS011;27024;54.068;12.116;2022-12-07T03:56:50;28.88;;;8.27;;
583;SDS011;27024;54.068;12.116;2022-12-07T03:59:18;26.88;;;8.50;;
583;SDS011;27024;54.068;12.116;2022-12-07T04:01:51;24.83;;;7.47;;
583;SDS011;27024;54.068;12.116;2022-12-07T04:04:21;25.65;;;8.82;;
583;SDS011;27024;54.068;12.116;2022-12-07T04:06:49;34.22;;;9.27;;
583;SDS011;27024;54.068;12.116;2022-12-07T04:09:16;25.33;;;7.65;;
583;SDS011;27024;54.068;12.116;2022-12-07T04:11:43;28.05;;;9.07;;
583;SDS011;27024;54.068;12.116;2022-12-07T04:14:10;28.45;;;9.23;;
583;SDS011;27024;54.068;12.116;2022-12-07T04:16:46;29.08;;;8.68;;
583;SDS011;27024;54.068;12.116;2022-12-07T04:19:15;28.67;;;8.55;;
583;SDS011;27024;54.068;12.116;2022-12-07T04:21:43;31.88;;;9.20;;
583;SDS011;27024;54.068;12.116;2022-12-07T04:24:11;29.40;;;9.68;;
583;SDS011;27024;54.068;12.116;2022-12-07T04:26:40;32.30;;;9.30;;
583;SDS011;27024;54.068;12.116;2022-12-07T04:29:08;31.50;;;10.05;;
583;SDS011;27024;54.068;12.116;2022-12-07T04:31:36;35.78;;;10.00;;
583;SDS011;27024;54.068;12.116;2022-12-07T04:34:03;32.58;;;9.23;;
583;SDS011;27024;54.068;12.116;2022-12-07T04:36:31;36.28;;;10.75;;
583;SDS011;27024;54.068;12.116;2022-12-07T04:38:58;37.97;;;9.60;;
583;SDS011;27024;54.068;12.116;2022-12-07T04:41:25;31.02;;;10.10;;
583;SDS011;27024;54.068;12.116;2022-12-07T04:44:02;30.83;;;10.18;;
583;SDS011;27024;54.068;12.116;2022-12-07T04:46:31;34.05;;;9.73;;
583;SDS011;27024;54.068;12.116;2022-12-07T04:48:58;30.30;;;9.27;;
583;SDS011;27024;54.068;12.116;2022-12-07T04:51:26;34.15;;;10.73;;
583;SDS011;27024;54.068;12.116;2022-12-07T04:53:55;30.95;;;9.75;;
583;SDS011;27024;54.068;12.116;2022-12-07T04:56:22;35.33;;;9.73;;
583;SDS011;27024;54.068;12.116;2022-12-07T04:58:49;29.25;;;9.57;;
583;SDS011;27024;54.068;12.116;2022-12-07T05:01:17;28.27;;;9.43;;
583;SDS011;27024;54.068;12.116;2022-12-07T05:03:45;33.63;;;11.07;;
583;SDS011;27024;54.068;12.116;2022-12-07T05:06:12;28.70;;;10.07;;
583;SDS011;27024;54.068;12.116;2022-12-07T05:08:39;30.38;;;9.50;;
583;SDS011;27024;54.068;12.116;2022-12-07T05:11:07;34.90;;;10.77;;
583;SDS011;27024;54.068;12.116;2022-12-07T05:13:34;33.42;;;10.35;;
583;SDS011;27024;54.068;12.116;2022-12-07T05:16:02;32.88;;;9.57;;
583;SDS011;27024;54.068;12.116;2022-12-07T05:18:29;36.75;;;9.52;;
583;SDS011;27024;54.068;12.116;2022-12-07T05:20:56;30.77;;;10.05;;
583;SDS011;27024;54.068;12.116;2022-12-07T05:23:23;35.15;;;9.82;;
583;SDS011;27024;54.068;12.116;2022-12-07T05:25:49;32.85;;;9.95;;
583;SDS011;27024;54.068;12.116;2022-12-07T05:28:16;32.85;;;10.07;;
583;SDS011;27024;54.068;12.116;2022-12-07T05:30:43;33.38;;;10.30;;
583;SDS011;27024;54.068;12.116;2022-12-07T05:33:10;42.83;;;9.38;;
583;SDS011;27024;54.068;12.116;2022-12-07T05:35:36;42.38;;;11.52;;
583;SDS011;27024;54.068;12.116;2022-12-07T05:38:04;32.25;;;10.95;;
583;SDS011;27024;54.068;12.116;2022-12-07T05:40:30;29.45;;;9.80;;
583;SDS011;27024;54.068;12.116;2022-12-07T05:42:57;35.00;;;11.20;;
583;SDS011;27024;54.068;12.116;2022-12-07T05:45:30;34.75;;;10.52;;
583;SDS011;27024;54.068;12.116;2022-12-07T05:47:57;31.85;;;10.05;;
583;SDS011;27024;54.068;12.116;2022-12-07T05:50:23;36.30;;;10.25;;
583;SDS011;27024;54.068;12.116;2022-12-07T05:52:50;35.15;;;10.73;;
583;SDS011;27024;54.068;12.116;2022-12-07T05:55:17;37.45;;;11.50;;
583;SDS011;27024;54.068;12.116;2022-12-07T05:57:44;33.35;;;10.57;;
583;SDS011;27024;54.068;12.116;2022-12-07T06:00:30;28.00;;;9.82;;
583;SDS011;27024;54.068;12.116;2022-12-07T06:02:57;32.85;;;10.30;;
583;SDS011;27024;54.068;12.116;2022-12-07T06:05:24;37.40;;;10.82;;
583;SDS011;27024;54.068;12.116;2022-12-07T06:07:51;32.17;;;11.00;;
583;SDS011;27024;54.068;12.116;2022-12-07T06:10:18;35.65;;;10.88;;
583;SDS011;27024;54.068;12.116;2022-12-07T06:12:45;35.00;;;11.75;;
583;SDS011;27024;54.068;12.116;2022-12-07T06:15:12;32.25;;;10.75;;
583;SDS011;27024;54.068;12.116;2022-12-07T06:17:39;33.88;;;11.10;;
583;SDS011;27024;54.068;12.116;2022-12-07T06:20:06;32.67;;;10.52;;
583;SDS011;27024;54.068;12.116;2022-12-07T06:22:33;27.80;;;10.95;;
583;SDS011;27024;54.068;12.116;2022-12-07T06:25:00;31.02;;;9.98;;
583;SDS011;27024;54.068;12.116;2022-12-07T06:27:34;33.00;;;9.98;;
583;SDS011;27024;54.068;12.116;2022-12-07T06:30:01;29.15;;;9.68;;
583;SDS011;27024;54.068;12.116;2022-12-07T06:32:33;25.25;;;9.45;;
583;SDS011;27024;54.068;12.116;2022-12-07T06:35:00;27.02;;;9.43;;
583;SDS011;27024;54.068;12.116;2022-12-07T06:37:27;30.42;;;9.80;;
583;SDS011;27024;54.068;12.116;2022-12-07T06:39:54;25.02;;;9.85;;
583;SDS011;27024;54.068;12.116;2022-12-07T06:42:21;26.60;;;9.38;;
583;SDS011;27024;54.068;12.116;2022-12-07T06:44:47;29.80;;;9.27;;
583;SDS011;27024;54.068;12.116;2022-12-07T06:47:15;30.80;;;10.00;;
583;SDS011;27024;54.068;12.116;2022-12-07T06:50:02;27.02;;;9.52;;
583;SDS011;27024;54.068;12.116;2022-12-07T06:52:30;27.25;;;10.05;;
583;SDS011;27024;54.068;12.116;2022-12-07T06:54:56;24.58;;;9.13;;
583;SDS011;27024;54.068;12.116;2022-12-07T06:57:23;28.27;;;9.13;;
583;SDS011;27024;54.068;12.116;2022-12-07T06:59:50;27.90;;;9.57;;
583;SDS011;27024;54.068;12.116;2022-12-07T07:02:17;27.88;;;8.90;;
583;SDS011;27024;54.068;12.116;2022-12-07T07:04:44;25.15;;;8.77;;
583;SDS011;27024;54.068;12.116;2022-12-07T07:07:11;26.80;;;8.38;;
583;SDS011;27024;54.068;12.116;2022-12-07T07:09:37;21.58;;;7.93;;
583;SDS011;27024;54.068;12.116;2022-12-07T07:12:04;22.90;;;8.20;;
583;SDS011;27024;54.068;12.116;2022-12-07T07:14:31;22.70;;;8.10;;
583;SDS011;27024;54.068;12.116;2022-12-07T07:16:57;21.27;;;7.22;;
583;SDS011;27024;54.068;12.116;2022-12-07T07:19:24;22.27;;;7.93;;
583;SDS011;27024;54.068;12.116;2022-12-07T07:21:51;17.70;;;7.00;;
583;SDS011;27024;54.068;12.116;2022-12-07T07:24:18;22.85;;;7.57;;
583;SDS011;27024;54.068;12.116;2022-12-07T07:26:45;19.80;;;7.32;;
583;SDS011;27024;54.068;12.116;2022-12-07T07:29:12;18.30;;;7.50;;
583;SDS011;27024;54.068;12.116;2022-12-07T07:31:38;17.90;;;6.97;;
583;SDS011;27024;54.068;12.116;2022-12-07T07:34:05;19.50;;;7.13;;
583;SDS011;27024;54.068;12.116;2022-12-07T07:36:32;19.85;;;7.03;;
583;SDS011;27024;54.068;12.116;2022-12-07T07:38:59;17.92;;;6.97;;
583;SDS011;27024;54.068;12.116;2022-12-07T07:41:26;14.32;;;5.75;;
583;SDS011;27024;54.068;12.116;2022-12-07T07:43:53;17.35;;;6.47;;
583;SDS011;27024;54.068;12.116;2022-12-07T07:46:19;16.83;;;6.25;;
583;SDS011;27024;54.068;12.116;2022-12-07T07:48:46;17.33;;;6.72;;
583;SDS011;27024;54.068;12.116;2022-12-07T07:51:13;16.80;;;6.40;;
583;SDS011;27024;54.068;12.116;2022-12-07T07:53:40;15.70;;;6.13;;
583;SDS011;27024;54.068;12.116;2022-12-07T07:56:07;16.48;;;6.93;;
583;SDS011;27024;54.068;12.116;2022-12-07T07:58:34;16.13;;;6.10;;
583;SDS011;27024;54.068;12.116;2022-12-07T08:01:07;16.15;;;7.07;;
583;SDS011;27024;54.068;12.116;2022-12-07T08:03:34;12.27;;;5.63;;
583;SDS011;27024;54.068;12.116;2022-12-07T08:06:02;13.88;;;5.10;;
583;SDS011;27024;54.068;12.116;2022-12-07T08:08:29;10.20;;;4.47;;
583;SDS011;27024;54.068;12.116;2022-12-07T08:10:56;9.25;;;4.20;;
583;SDS011;27024;54.068;12.116;2022-12-07T08:13:26;9.35;;;4.00;;
583;SDS011;27024;54.068;12.116;2022-12-07T08:15:57;9.43;;;4.07;;
583;SDS011;27024;54.068;12.116;2022-12-07T08:18:24;10.23;;;4.28;;
583;SDS011;27024;54.068;12.116;2022-12-07T08:20:51;8.57;;;4.00;;
583;SDS011;27024;54.068;12.116;2022-12-07T08:23:17;10.10;;;4.03;;
583;SDS011;27024;54.068;12.116;2022-12-07T08:25:44;8.05;;;3.80;;
583;SDS011;27024;54.068;12.116;2022-12-07T08:28:11;8.93;;;4.00;;
583;SDS011;27024;54.068;12.116;2022-12-07T08:30:38;8.75;;;4.18;;
583;SDS011;27024;54.068;12.116;2022-12-07T08:33:04;10.35;;;4.45;;
583;SDS011;27024;54.068;12.116;2022-12-07T08:35:32;7.75;;;3.75;;
583;SDS011;27024;54.068;12.116;2022-12-07T08:38:00;6.93;;;3.40;;
583;SDS011;27024;54.068;12.116;2022-12-07T08:40:28;7.60;;;3.50;;
583;SDS011;27024;54.068;12.116;2022-12-07T08:42:55;7.72;;;3.10;;
583;SDS011;27024;54.068;12.116;2022-12-07T08:45:22;6.20;;;3.47;;
583;SDS011;27024;54.068;12.116;2022-12-07T08:48:04;6.85;;;3.20;;
583;SDS011;27024;54.068;12.116;2022-12-07T08:50:36;7.80;;;2.97;;
583;SDS011;27024;54.068;12.116;2022-12-07T08:53:04;6.45;;;2.72;;
583;SDS011;27024;54.068;12.116;2022-12-07T08:55:33;8.27;;;2.83;;
583;SDS011;27024;54.068;12.116;2022-12-07T08:58:00;5.53;;;2.30;;
583;SDS011;27024;54.068;12.116;2022-12-07T09:00:28;5.47;;;3.05;;
583;SDS011;27024;54.068;12.116;2022-12-07T09:02:55;5.13;;;2.28;;
583;SDS011;27024;54.068;12.116;2022-12-07T09:05:22;6.25;;;2.55;;
583;SDS011;27024;54.068;12.116;2022-12-07T09:07:50;6.95;;;3.20;;
583;SDS011;27024;54.068;12.116;2022-12-07T09:10:20;6.88;;;2.85;;
583;SDS011;27024;54.068;12.116;2022-12-07T09:12:47;7.07;;;3.05;;
583;SDS011;27024;54.068;12.116;2022-12-07T09:15:14;8.52;;;3.60;;
583;SDS011;27024;54.068;12.116;2022-12-07T09:17:41;7.95;;;3.58;;
583;SDS011;27024;54.068;12.116;2022-12-07T09:20:07;10.65;;;4.45;;
583;SDS011;27024;54.068;12.116;2022-12-07T09:22:35;8.32;;;3.95;;
583;SDS011;27024;54.068;12.116;2022-12-07T09:25:02;10.52;;;4.22;;
583;SDS011;27024;54.068;12.116;2022-12-07T09:27:30;11.40;;;4.78;;
583;SDS011;27024;54.068;12.116;2022-12-07T09:29:57;11.40;;;4.07;;
583;SDS011;27024;54.068;12.116;2022-12-07T09:32:23;10.27;;;3.75;;
583;SDS011;27024;54.068;12.116;2022-12-07T09:34:51;8.35;;;3.95;;
583;SDS011;27024;54.068;12.116;2022-12-07T09:37:17;8.52;;;3.78;;
583;SDS011;27024;54.068;12.116;2022-12-07T09:39:44;11.00;;;4.13;;
583;SDS011;27024;54.068;12.116;2022-12-07T09:42:24;10.70;;;3.75;;
583;SDS011;27024;54.068;12.116;2022-12-07T09:44:59;9.75;;;3.88;;
583;SDS011;27024;54.068;12.116;2022-12-07T09:47:26;8.32;;;3.25;;
583;SDS011;27024;54.068;12.116;2022-12-07T09:49:55;9.70;;;3.65;;
583;SDS011;27024;54.068;12.116;2022-12-07T09:52:30;9.68;;;4.00;;
583;SDS011;27024;54.068;12.116;2022-12-07T09:55:09;9.52;;;3.40;;
583;SDS011;27024;54.068;12.116;2022-12-07T09:57:40;9.02;;;4.10;;
583;SDS011;27024;54.068;12.116;2022-12-07T10:00:16;9.60;;;3.88;;
583;SDS011;27024;54.068;12.116;2022-12-07T10:02:53;13.52;;;3.45;;
583;SDS011;27024;54.068;12.116;2022-12-07T10:05:28;8.80;;;3.33;;
583;SDS011;27024;54.068;12.116;2022-12-07T10:08:00;11.20;;;3.08;;
583;SDS011;27024;54.068;12.116;2022-12-07T10:10:30;10.00;;;3.42;;
583;SDS011;27024;54.068;12.116;2022-12-07T10:13:04;8.27;;;2.90;;
583;SDS011;27024;54.068;12.116;2022-12-07T10:15:40;6.00;;;2.90;;
583;SDS011;27024;54.068;12.116;2022-12-07T10:18:33;7.25;;;2.70;;
583;SDS011;27024;54.068;12.116;2022-12-07T10:23:36;8.40;;;2.65;;
583;SDS011;27024;54.068;12.116;2022-12-07T10:26:26;8.32;;;2.63;;
583;SDS011;27024;54.068;12.116;2022-12-07T10:31:25;8.88;;;2.00;;
583;SDS011;27024;54.068;12.116;2022-12-07T10:33:59;8.05;;;1.88;;
583;SDS011;27024;54.068;12.116;2022-12-07T10:39:13;11.90;;;1.80;;
583;SDS011;27024;54.068;12.116;2022-12-07T10:41:55;4.05;;;1.13;;
583;SDS011;27024;54.068;12.116;2022-12-07T10:44:28;7.85;;;1.70;;
583;SDS011;27024;54.068;12.116;2022-12-07T11:00:25;5.22;;;1.23;;
583;SDS011;27024;54.068;12.116;2022-12-07T11:03:05;6.07;;;0.90;;
583;SDS011;27024;54.068;12.116;2022-12-07T11:08:15;3.95;;;0.40;;
583;SDS011;27024;54.068;12.116;2022-12-07T11:21:57;1.63;;;0.30;;
583;SDS011;27024;54.068;12.116;2022-12-07T11:24:29;2.38;;;0.32;;
583;SDS011;27024;54.068;12.116;2022-12-07T11:27:16;6.32;;;0.52;;
583;SDS011;27024;54.068;12.116;2022-12-07T11:30:02;2.75;;;0.50;;
583;SDS011;27024;54.068;12.116;2022-12-07T11:37:47;5.82;;;0.45;;
583;SDS011;27024;54.068;12.116;2022-12-07T11:40:24;1.23;;;0.30;;
583;SDS011;27024;54.068;12.116;2022-12-07T11:42:59;1.95;;;0.30;;
583;SDS011;27024;54.068;12.116;2022-12-07T11:45:31;1.55;;;0.20;;
583;SDS011;27024;54.068;12.116;2022-12-07T11:48:06;2.38;;;0.20;;
583;SDS011;27024;54.068;12.116;2022-12-07T11:53:26;2.42;;;0.30;;
583;SDS011;27024;54.068;12.116;2022-12-07T11:56:00;1.88;;;0.30;;
583;SDS011;27024;54.068;12.116;2022-12-07T12:06:36;2.55;;;0.30;;
583;SDS011;27024;54.068;12.116;2022-12-07T12:09:12;2.88;;;0.63;;
583;SDS011;27024;54.068;12.116;2022-12-07T12:18:05;1.30;;;0.20;;
583;SDS011;27024;54.068;12.116;2022-12-07T12:20:49;2.50;;;0.30;;
583;SDS011;27024;54.068;12.116;2022-12-07T12:26:01;2.80;;;0.50;;
583;SDS011;27024;54.068;12.116;2022-12-07T12:28:41;3.00;;;0.40;;
583;SDS011;27024;54.068;12.116;2022-12-07T12:31:16;3.83;;;0.30;;
583;SDS011;27024;54.068;12.116;2022-12-07T12:33:56;2.65;;;0.30;;
583;SDS011;27024;54.068;12.116;2022-12-07T12:46:53;4.15;;;0.60;;
583;SDS011;27024;54.068;12.116;2022-12-07T12:51:50;3.65;;;0.32;;
583;SDS011;27024;54.068;12.116;2022-12-07T12:59:38;2.50;;;0.20;;
583;SDS011;27024;54.068;12.116;2022-12-07T13:02:15;3.55;;;0.38;;
583;SDS011;27024;54.068;12.116;2022-12-07T13:15:41;3.15;;;0.30;;
583;SDS011;27024;54.068;12.116;2022-12-07T13:29:11;3.15;;;0.30;;
583;SDS011;27024;54.068;12.116;2022-12-07T13:34:35;6.88;;;0.60;;
583;SDS011;27024;54.068;12.116;2022-12-07T13:39:44;0.80;;;0.17;;
583;SDS011;27024;54.068;12.116;2022-12-07T13:42:29;1.60;;;0.10;;
583;SDS011;27024;54.068;12.116;2022-12-07T13:44:59;3.33;;;0.30;;
583;SDS011;27024;54.068;12.116;2022-12-07T13:52:56;1.02;;;0.10;;
583;SDS011;27024;54.068;12.116;2022-12-07T13:55:24;1.85;;;0.20;;
583;SDS011;27024;54.068;12.116;2022-12-07T13:57:52;1.85;;;0.13;;
583;SDS011;27024;54.068;12.116;2022-12-07T14:00:21;1.85;;;0.10;;
583;SDS011;27024;54.068;12.116;2022-12-07T14:05:31;1.65;;;0.20;;
583;SDS011;27024;54.068;12.116;2022-12-07T14:08:04;0.28;;;0.10;;
583;SDS011;27024;54.068;12.116;2022-12-07T14:10:32;0.55;;;0.10;;
583;SDS011;27024;54.068;12.116;2022-12-07T14:18:46;1.85;;;0.30;;
583;SDS011;27024;54.068;12.116;2022-12-07T14:23:40;2.00;;;0.20;;
583;SDS011;27024;54.068;12.116;2022-12-07T14:26:08;3.22;;;0.20;;
583;SDS011;27024;54.068;12.116;2022-12-07T14:31:13;1.55;;;0.20;;
583;SDS011;27024;54.068;12.116;2022-12-07T14:33:51;4.55;;;0.28;;
583;SDS011;27024;54.068;12.116;2022-12-07T14:36:18;2.17;;;0.22;;
583;SDS011;27024;54.068;12.116;2022-12-07T14:38:45;1.90;;;0.32;;
583;SDS011;27024;54.068;12.116;2022-12-07T14:41:13;2.70;;;0.10;;
583;SDS011;27024;54.068;12.116;2022-12-07T14:44:07;3.28;;;0.20;;
583;SDS011;27024;54.068;12.116;2022-12-07T14:46:58;1.50;;;0.25;;
583;SDS011;27024;54.068;12.116;2022-12-07T14:49:45;0.60;;;0.20;;
583;SDS011;27024;54.068;12.116;2022-12-07T14:52:14;1.80;;;0.30;;
583;SDS011;27024;54.068;12.116;2022-12-07T14:55:04;1.50;;;0.43;;
583;SDS011;27024;54.068;12.116;2022-12-07T14:57:32;0.60;;;0.10;;
583;SDS011;27024;54.068;12.116;2022-12-07T15:00:01;1.52;;;0.20;;
583;SDS011;27024;54.068;12.116;2022-12-07T15:02:28;1.48;;;0.20;;
583;SDS011;27024;54.068;12.116;2022-12-07T15:04:55;1.55;;;0.20;;
583;SDS011;27024;54.068;12.116;2022-12-07T15:07:22;0.45;;;0.10;;
583;SDS011;27024;54.068;12.116;2022-12-07T15:09:50;0.52;;;0.10;;
583;SDS011;27024;54.068;12.116;2022-12-07T15:12:16;0.77;;;0.22;;
583;SDS011;27024;54.068;12.116;2022-12-07T15:14:43;1.10;;;0.20;;
583;SDS011;27024;54.068;12.116;2022-12-07T15:17:10;0.85;;;0.30;;
583;SDS011;27024;54.068;12.116;2022-12-07T15:19:53;3.30;;;0.40;;
583;SDS011;27024;54.068;12.116;2022-12-07T15:22:20;1.67;;;0.20;;
583;SDS011;27024;54.068;12.116;2022-12-07T15:24:46;1.92;;;0.10;;
583;SDS011;27024;54.068;12.116;2022-12-07T15:27:13;1.13;;;0.10;;
583;SDS011;27024;54.068;12.116;2022-12-07T15:29:40;0.50;;;0.30;;
583;SDS011;27024;54.068;12.116;2022-12-07T15:32:06;1.20;;;0.22;;
583;SDS011;27024;54.068;12.116;2022-12-07T15:34:33;1.67;;;0.38;;
583;SDS011;27024;54.068;12.116;2022-12-07T15:37:05;1.30;;;0.20;;
583;SDS011;27024;54.068;12.116;2022-12-07T15:39:33;2.50;;;0.40;;
583;SDS011;27024;54.068;12.116;2022-12-07T15:42:00;4.20;;;0.20;;
583;SDS011;27024;54.068;12.116;2022-12-07T15:44:27;3.03;;;0.25;;
583;SDS011;27024;54.068;12.116;2022-12-07T15:47:13;1.10;;;0.17;;
583;SDS011;27024;54.068;12.116;2022-12-07T15:49:39;3.85;;;0.17;;
583;SDS011;27024;54.068;12.116;2022-12-07T15:52:06;1.85;;;0.20;;
583;SDS011;27024;54.068;12.116;2022-12-07T15:54:33;0.95;;;0.10;;
583;SDS011;27024;54.068;12.116;2022-12-07T15:56:59;1.92;;;0.38;;
583;SDS011;27024;54.068;12.116;2022-12-07T15:59:27;1.67;;;0.20;;
583;SDS011;27024;54.068;12.116;2022-12-07T16:01:54;1.15;;;0.38;;
583;SDS011;27024;54.068;12.116;2022-12-07T16:04:22;2.22;;;0.20;;
583;SDS011;27024;54.068;12.116;2022-12-07T16:06:49;0.50;;;0.10;;
583;SDS011;27024;54.068;12.116;2022-12-07T16:09:17;3.33;;;0.20;;
583;SDS011;27024;54.068;12.116;2022-12-07T16:11:45;1.42;;;0.30;;
583;SDS011;27024;54.068;12.116;2022-12-07T16:14:12;1.63;;;0.20;;
583;SDS011;27024;54.068;12.116;2022-12-07T16:16:39;1.67;;;0.20;;
583;SDS011;27024;54.068;12.116;2022-12-07T16:19:07;0.95;;;0.28;;
583;SDS011;27024;54.068;12.116;2022-12-07T16:21:35;2.33;;;0.20;;
583;SDS011;27024;54.068;12.116;2022-12-07T16:24:02;1.45;;;0.20;;
583;SDS011;27024;54.068;12.116;2022-12-07T16:26:29;1.85;;;0.30;;
583;SDS011;27024;54.068;12.116;2022-12-07T16:28:56;3.22;;;0.30;;
583;SDS011;27024;54.068;12.116;2022-12-07T16:31:25;2.60;;;0.60;;
583;SDS011;27024;54.068;12.116;2022-12-07T16:33:54;1.67;;;0.30;;
583;SDS011;27024;54.068;12.116;2022-12-07T16:36:23;5.00;;;0.52;;
583;SDS011;27024;54.068;12.116;2022-12-07T16:39:12;2.85;;;0.40;;
583;SDS011;27024;54.068;12.116;2022-12-07T16:41:39;1.58;;;0.30;;
583;SDS011;27024;54.068;12.116;2022-12-07T16:44:07;2.47;;;0.30;;
583;SDS011;27024;54.068;12.116;2022-12-07T16:46:36;2.75;;;0.63;;
583;SDS011;27024;54.068;12.116;2022-12-07T16:49:03;2.95;;;0.40;;
583;SDS011;27024;54.068;12.116;2022-12-07T16:51:30;3.22;;;0.30;;
583;SDS011;27024;54.068;12.116;2022-12-07T16:53:57;1.67;;;0.30;;
583;SDS011;27024;54.068;12.116;2022-12-07T16:56:25;1.83;;;0.30;;
583;SDS011;27024;54.068;12.116;2022-12-07T16:58:53;1.88;;;0.30;;
583;SDS011;27024;54.068;12.116;2022-12-07T17:01:21;1.58;;;0.30;;
583;SDS011;27024;54.068;12.116;2022-12-07T17:03:49;2.00;;;0.32;;
583;SDS011;27024;54.068;12.116;2022-12-07T17:06:21;2.17;;;0.30;;
583;SDS011;27024;54.068;12.116;2022-12-07T17:08:50;2.65;;;0.47;;
583;SDS011;27024;54.068;12.116;2022-12-07T17:11:20;1.60;;;0.52;;
583;SDS011;27024;54.068;12.116;2022-12-07T17:13:48;2.25;;;0.40;;
583;SDS011;27024;54.068;12.116;2022-12-07T17:16:34;1.38;;;0.20;;
583;SDS011;27024;54.068;12.116;2022-12-07T17:19:06;4.40;;;0.52;;
583;SDS011;27024;54.068;12.116;2022-12-07T17:24:02;0.70;;;0.52;;
583;SDS011;27024;54.068;12.116;2022-12-07T17:26:31;1.70;;;0.20;;
583;SDS011;27024;54.068;12.116;2022-12-07T17:29:01;1.13;;;0.20;;
583;SDS011;27024;54.068;12.116;2022-12-07T17:31:32;2.28;;;0.30;;
583;SDS011;27024;54.068;12.116;2022-12-07T17:33:59;2.53;;;0.38;;
583;SDS011;27024;54.068;12.116;2022-12-07T17:36:27;2.35;;;0.30;;
583;SDS011;27024;54.068;12.116;2022-12-07T17:38:55;1.95;;;0.30;;
583;SDS011;27024;54.068;12.116;2022-12-07T17:41:24;1.63;;;0.30;;
583;SDS011;27024;54.068;12.116;2022-12-07T17:44:11;2.55;;;0.20;;
583;SDS011;27024;54.068;12.116;2022-12-07T17:46:44;0.47;;;0.20;;
583;SDS011;27024;54.068;12.116;2022-12-07T17:49:12;1.65;;;0.20;;
583;SDS011;27024;54.068;12.116;2022-12-07T17:51:40;2.05;;;0.32;;
583;SDS011;27024;54.068;12.116;2022-12-07T17:54:25;1.60;;;0.20;;
583;SDS011;27024;54.068;12.116;2022-12-07T17:56:52;0.98;;;0.20;;